sensor_id;sensor_type;location;lat;lon;timestamp;pressure;altitude;pressure_sealevel;temperature
44429;BMP180;30134;47.866;-4.222;2023-03-24T00:00:00;99894.00;;;23.30
44429;BMP180;30134;47.866;-4.222;2023-03-24T00:02:27;99902.00;;;23.30
44429;BMP180;30134;47.866;-4.222;2023-03-24T00:04:54;99911.00;;;23.30
44429;BMP180;30134;47.866;-4.222;2023-03-24T00:07:24;99909.00;;;23.30
44429;BMP180;30134;47.866;-4.222;2023-03-24T00:09:50;99913.00;;;23.30
44429;BMP180;30134;47.866;-4.222;2023-03-24T00:12:18;99914.00;;;23.30
44429;BMP180;30134;47.866;-4.222;2023-03-24T00:14:45;99913.00;;;23.30
44429;BMP180;30134;47.866;-4.222;2023-03-24T00:17:12;99923.00;;;23.20
44429;BMP180;30134;47.866;-4.222;2023-03-24T00:19:42;99926.00;;;23.30
44429;BMP180;30134;47.866;-4.222;2023-03-24T00:22:12;99919.00;;;23.30
44429;BMP180;30134;47.866;-4.222;2023-03-24T00:24:43;99925.00;;;23.30
44429;BMP180;30134;47.866;-4.222;2023-03-24T00:27:12;99924.00;;;23.30
44429;BMP180;30134;47.866;-4.222;2023-03-24T00:29:41;99934.00;;;23.20
44429;BMP180;30134;47.866;-4.222;2023-03-24T00:32:07;99937.00;;;23.20
44429;BMP180;30134;47.866;-4.222;2023-03-24T00:34:35;99945.00;;;23.30
44429;BMP180;30134;47.866;-4.222;2023-03-24T00:37:04;99939.00;;;23.20
44429;BMP180;30134;47.866;-4.222;2023-03-24T00:39:31;99951.00;;;23.30
44429;BMP180;30134;47.866;-4.222;2023-03-24T00:41:57;99947.00;;;23.20
44429;BMP180;30134;47.866;-4.222;2023-03-24T00:44:24;99954.00;;;23.20
44429;BMP180;30134;47.866;-4.222;2023-03-24T00:46:51;99960.00;;;23.20
44429;BMP180;30134;47.866;-4.222;2023-03-24T00:49:27;99960.00;;;23.20
44429;BMP180;30134;47.866;-4.222;2023-03-24T00:52:23;99966.00;;;23.20
44429;BMP180;30134;47.866;-4.222;2023-03-24T00:54:52;99959.00;;;23.30
44429;BMP180;30134;47.866;-4.222;2023-03-24T00:57:23;99957.00;;;23.30
44429;BMP180;30134;47.866;-4.222;2023-03-24T00:59:52;99965.00;;;23.20
44429;BMP180;30134;47.866;-4.222;2023-03-24T01:02:21;99969.00;;;23.20
44429;BMP180;30134;47.866;-4.222;2023-03-24T01:04:57;99965.00;;;23.20
44429;BMP180;30134;47.866;-4.222;2023-03-24T01:07:26;99966.00;;;23.20
44429;BMP180;30134;47.866;-4.222;2023-03-24T01:09:56;99976.00;;;23.20
44429;BMP180;30134;47.866;-4.222;2023-03-24T01:12:35;99972.00;;;23.20
44429;BMP180;30134;47.866;-4.222;2023-03-24T01:15:14;99970.00;;;23.20
44429;BMP180;30134;47.866;-4.222;2023-03-24T01:17:48;99968.00;;;23.20
44429;BMP180;30134;47.866;-4.222;2023-03-24T01:20:14;99975.00;;;23.20
44429;BMP180;30134;47.866;-4.222;2023-03-24T01:22:42;99977.00;;;23.20
44429;BMP180;30134;47.866;-4.222;2023-03-24T01:25:17;99980.00;;;23.20
44429;BMP180;30134;47.866;-4.222;2023-03-24T01:27:45;99982.00;;;23.20
44429;BMP180;30134;47.866;-4.222;2023-03-24T01:30:24;99969.00;;;23.20
44429;BMP180;30134;47.866;-4.222;2023-03-24T01:32:51;99978.00;;;23.20
44429;BMP180;30134;47.866;-4.222;2023-03-24T01:35:19;99980.00;;;23.20
44429;BMP180;30134;47.866;-4.222;2023-03-24T01:37:46;99983.00;;;23.20
44429;BMP180;30134;47.866;-4.222;2023-03-24T01:40:26;99980.00;;;23.20
44429;BMP180;30134;47.866;-4.222;2023-03-24T01:42:52;99977.00;;;23.20
44429;BMP180;30134;47.866;-4.222;2023-03-24T01:48:22;99978.00;;;23.20
44429;BMP180;30134;47.866;-4.222;2023-03-24T01:51:01;99975.00;;;23.20
44429;BMP180;30134;47.866;-4.222;2023-03-24T01:53:28;99981.00;;;23.20
44429;BMP180;30134;47.866;-4.222;2023-03-24T01:55:55;99978.00;;;23.20
44429;BMP180;30134;47.866;-4.222;2023-03-24T01:58:24;99984.00;;;23.20
44429;BMP180;30134;47.866;-4.222;2023-03-24T02:00:52;99982.00;;;23.20
44429;BMP180;30134;47.866;-4.222;2023-03-24T02:03:21;99979.00;;;23.20
44429;BMP180;30134;47.866;-4.222;2023-03-24T02:05:52;99981.00;;;23.20
44429;BMP180;30134;47.866;-4.222;2023-03-24T02:08:41;99981.00;;;23.20
44429;BMP180;30134;47.866;-4.222;2023-03-24T02:11:11;99980.00;;;23.20
44429;BMP180;30134;47.866;-4.222;2023-03-24T02:13:37;99988.00;;;23.20
44429;BMP180;30134;47.866;-4.222;2023-03-24T02:37:08;99987.00;;;23.20
44429;BMP180;30134;47.866;-4.222;2023-03-24T02:46:21;99988.00;;;23.10
44429;BMP180;30134;47.866;-4.222;2023-03-24T02:51:46;100001.00;;;23.10
44429;BMP180;30134;47.866;-4.222;2023-03-24T02:54:41;99991.00;;;23.10
44429;BMP180;30134;47.866;-4.222;2023-03-24T02:57:35;99985.00;;;23.10
44429;BMP180;30134;47.866;-4.222;2023-03-24T03:03:25;99996.00;;;23.10
44429;BMP180;30134;47.866;-4.222;2023-03-24T03:06:38;99993.00;;;23.10
44429;BMP180;30134;47.866;-4.222;2023-03-24T03:08:47;99992.00;;;23.10
44429;BMP180;30134;47.866;-4.222;2023-03-24T03:11:16;99987.00;;;23.10
44429;BMP180;30134;47.866;-4.222;2023-03-24T03:14:44;99983.00;;;23.10
44429;BMP180;30134;47.866;-4.222;2023-03-24T03:17:19;99985.00;;;23.10
44429;BMP180;30134;47.866;-4.222;2023-03-24T03:20:25;99990.00;;;23.10
44429;BMP180;30134;47.866;-4.222;2023-03-24T03:22:59;99987.00;;;23.10
44429;BMP180;30134;47.866;-4.222;2023-03-24T03:25:31;99992.00;;;23.10
44429;BMP180;30134;47.866;-4.222;2023-03-24T03:28:00;99988.00;;;23.10
44429;BMP180;30134;47.866;-4.222;2023-03-24T03:30:41;99999.00;;;23.10
44429;BMP180;30134;47.866;-4.222;2023-03-24T03:33:14;99993.00;;;23.10
44429;BMP180;30134;47.866;-4.222;2023-03-24T03:36:12;99994.00;;;23.00
44429;BMP180;30134;47.866;-4.222;2023-03-24T03:39:10;99996.00;;;23.10
44429;BMP180;30134;47.866;-4.222;2023-03-24T03:41:38;99999.00;;;23.10
44429;BMP180;30134;47.866;-4.222;2023-03-24T03:44:05;99995.00;;;23.10
44429;BMP180;30134;47.866;-4.222;2023-03-24T03:46:31;99991.00;;;23.00
44429;BMP180;30134;47.866;-4.222;2023-03-24T03:48:59;100000.00;;;23.10
44429;BMP180;30134;47.866;-4.222;2023-03-24T03:51:25;99993.00;;;23.10
44429;BMP180;30134;47.866;-4.222;2023-03-24T03:53:58;99995.00;;;23.00
44429;BMP180;30134;47.866;-4.222;2023-03-24T03:56:28;99990.00;;;23.10
44429;BMP180;30134;47.866;-4.222;2023-03-24T03:58:54;99994.00;;;23.10
44429;BMP180;30134;47.866;-4.222;2023-03-24T04:01:24;100002.00;;;23.00
44429;BMP180;30134;47.866;-4.222;2023-03-24T04:04:10;100007.00;;;23.10
44429;BMP180;30134;47.866;-4.222;2023-03-24T04:15:56;100002.00;;;23.00
44429;BMP180;30134;47.866;-4.222;2023-03-24T04:28:15;100013.00;;;23.10
44429;BMP180;30134;47.866;-4.222;2023-03-24T04:33:51;100009.00;;;23.10
44429;BMP180;30134;47.866;-4.222;2023-03-24T04:36:50;100014.00;;;23.00
44429;BMP180;30134;47.866;-4.222;2023-03-24T04:39:27;100009.00;;;23.00
44429;BMP180;30134;47.866;-4.222;2023-03-24T04:42:04;100020.00;;;23.10
44429;BMP180;30134;47.866;-4.222;2023-03-24T04:44:32;100025.00;;;23.00
44429;BMP180;30134;47.866;-4.222;2023-03-24T04:47:01;100021.00;;;23.00
44429;BMP180;30134;47.866;-4.222;2023-03-24T04:49:27;100025.00;;;23.00
44429;BMP180;30134;47.866;-4.222;2023-03-24T04:51:56;100033.00;;;23.00
44429;BMP180;30134;47.866;-4.222;2023-03-24T04:54:28;100036.00;;;23.00
44429;BMP180;30134;47.866;-4.222;2023-03-24T04:56:58;100040.00;;;23.00
44429;BMP180;30134;47.866;-4.222;2023-03-24T04:59:27;100036.00;;;23.00
44429;BMP180;30134;47.866;-4.222;2023-03-24T05:01:53;100039.00;;;23.00
44429;BMP180;30134;47.866;-4.222;2023-03-24T05:04:25;100039.00;;;23.00
44429;BMP180;30134;47.866;-4.222;2023-03-24T05:06:52;100037.00;;;23.00
44429;BMP180;30134;47.866;-4.222;2023-03-24T05:09:20;100048.00;;;23.00
44429;BMP180;30134;47.866;-4.222;2023-03-24T05:11:48;100047.00;;;23.00
44429;BMP180;30134;47.866;-4.222;2023-03-24T05:14:15;100049.00;;;23.00
44429;BMP180;30134;47.866;-4.222;2023-03-24T05:16:41;100049.00;;;23.00
44429;BMP180;30134;47.866;-4.222;2023-03-24T05:19:07;100052.00;;;23.00
44429;BMP180;30134;47.866;-4.222;2023-03-24T05:21:34;100058.00;;;23.00
44429;BMP180;30134;47.866;-4.222;2023-03-24T05:24:00;100054.00;;;23.00
44429;BMP180;30134;47.866;-4.222;2023-03-24T05:26:26;100058.00;;;23.00
44429;BMP180;30134;47.866;-4.222;2023-03-24T05:28:53;100063.00;;;23.00
44429;BMP180;30134;47.866;-4.222;2023-03-24T05:31:19;100050.00;;;23.00
44429;BMP180;30134;47.866;-4.222;2023-03-24T05:33:45;100062.00;;;23.00
44429;BMP180;30134;47.866;-4.222;2023-03-24T05:36:11;100059.00;;;23.00
44429;BMP180;30134;47.866;-4.222;2023-03-24T05:38:37;100064.00;;;23.00
44429;BMP180;30134;47.866;-4.222;2023-03-24T05:41:04;100070.00;;;23.00
44429;BMP180;30134;47.866;-4.222;2023-03-24T05:43:31;100065.00;;;22.90
44429;BMP180;30134;47.866;-4.222;2023-03-24T05:45:57;100074.00;;;23.00
44429;BMP180;30134;47.866;-4.222;2023-03-24T05:48:25;100074.00;;;23.00
44429;BMP180;30134;47.866;-4.222;2023-03-24T05:50:52;100081.00;;;22.90
44429;BMP180;30134;47.866;-4.222;2023-03-24T05:53:19;100079.00;;;23.00
44429;BMP180;30134;47.866;-4.222;2023-03-24T05:55:46;100078.00;;;22.90
44429;BMP180;30134;47.866;-4.222;2023-03-24T05:58:12;100090.00;;;23.00
44429;BMP180;30134;47.866;-4.222;2023-03-24T06:00:38;100088.00;;;22.90
44429;BMP180;30134;47.866;-4.222;2023-03-24T06:03:04;100104.00;;;23.00
44429;BMP180;30134;47.866;-4.222;2023-03-24T06:05:31;100104.00;;;23.00
44429;BMP180;30134;47.866;-4.222;2023-03-24T06:07:57;100108.00;;;22.90
44429;BMP180;30134;47.866;-4.222;2023-03-24T06:10:27;100117.00;;;22.90
44429;BMP180;30134;47.866;-4.222;2023-03-24T06:12:54;100109.00;;;22.90
44429;BMP180;30134;47.866;-4.222;2023-03-24T06:15:24;100111.00;;;22.90
44429;BMP180;30134;47.866;-4.222;2023-03-24T06:17:52;100118.00;;;22.90
44429;BMP180;30134;47.866;-4.222;2023-03-24T06:20:20;100111.00;;;22.90
44429;BMP180;30134;47.866;-4.222;2023-03-24T06:22:47;100120.00;;;22.90
44429;BMP180;30134;47.866;-4.222;2023-03-24T06:25:17;100125.00;;;22.90
44429;BMP180;30134;47.866;-4.222;2023-03-24T06:27:46;100124.00;;;22.90
44429;BMP180;30134;47.866;-4.222;2023-03-24T06:30:14;100122.00;;;22.90
44429;BMP180;30134;47.866;-4.222;2023-03-24T06:32:41;100133.00;;;22.90
44429;BMP180;30134;47.866;-4.222;2023-03-24T06:35:15;100140.00;;;22.90
44429;BMP180;30134;47.866;-4.222;2023-03-24T06:37:42;100135.00;;;22.90
44429;BMP180;30134;47.866;-4.222;2023-03-24T06:40:09;100138.00;;;22.90
44429;BMP180;30134;47.866;-4.222;2023-03-24T06:42:37;100147.00;;;22.90
44429;BMP180;30134;47.866;-4.222;2023-03-24T06:45:04;100143.00;;;22.90
44429;BMP180;30134;47.866;-4.222;2023-03-24T06:47:31;100143.00;;;22.90
44429;BMP180;30134;47.866;-4.222;2023-03-24T06:49:57;100147.00;;;22.90
44429;BMP180;30134;47.866;-4.222;2023-03-24T06:52:23;100148.00;;;22.90
44429;BMP180;30134;47.866;-4.222;2023-03-24T06:54:49;100155.00;;;22.90
44429;BMP180;30134;47.866;-4.222;2023-03-24T06:57:15;100158.00;;;22.90
44429;BMP180;30134;47.866;-4.222;2023-03-24T06:59:42;100159.00;;;22.90
44429;BMP180;30134;47.866;-4.222;2023-03-24T07:02:10;100160.00;;;22.90
44429;BMP180;30134;47.866;-4.222;2023-03-24T07:04:37;100161.00;;;22.90
44429;BMP180;30134;47.866;-4.222;2023-03-24T07:07:03;100163.00;;;22.90
44429;BMP180;30134;47.866;-4.222;2023-03-24T07:09:29;100164.00;;;22.90
44429;BMP180;30134;47.866;-4.222;2023-03-24T07:11:55;100171.00;;;22.90
44429;BMP180;30134;47.866;-4.222;2023-03-24T07:14:28;100171.00;;;22.90
44429;BMP180;30134;47.866;-4.222;2023-03-24T07:16:54;100170.00;;;22.90
44429;BMP180;30134;47.866;-4.222;2023-03-24T07:19:20;100169.00;;;22.90
44429;BMP180;30134;47.866;-4.222;2023-03-24T07:21:47;100169.00;;;22.90
44429;BMP180;30134;47.866;-4.222;2023-03-24T07:24:17;100173.00;;;22.90
44429;BMP180;30134;47.866;-4.222;2023-03-24T07:26:44;100176.00;;;22.90
44429;BMP180;30134;47.866;-4.222;2023-03-24T07:29:10;100178.00;;;22.90
44429;BMP180;30134;47.866;-4.222;2023-03-24T07:31:37;100178.00;;;22.90
44429;BMP180;30134;47.866;-4.222;2023-03-24T07:34:05;100187.00;;;22.90
44429;BMP180;30134;47.866;-4.222;2023-03-24T07:36:31;100186.00;;;22.90
44429;BMP180;30134;47.866;-4.222;2023-03-24T07:38:57;100187.00;;;22.90
44429;BMP180;30134;47.866;-4.222;2023-03-24T07:41:23;100193.00;;;22.90
44429;BMP180;30134;47.866;-4.222;2023-03-24T07:43:51;100193.00;;;22.90
44429;BMP180;30134;47.866;-4.222;2023-03-24T07:46:17;100197.00;;;22.90
44429;BMP180;30134;47.866;-4.222;2023-03-24T07:48:43;100207.00;;;22.90
44429;BMP180;30134;47.866;-4.222;2023-03-24T07:51:09;100201.00;;;22.90
44429;BMP180;30134;47.866;-4.222;2023-03-24T07:53:35;100212.00;;;22.90
44429;BMP180;30134;47.866;-4.222;2023-03-24T07:56:01;100201.00;;;22.90
44429;BMP180;30134;47.866;-4.222;2023-03-24T07:58:30;100212.00;;;22.90
44429;BMP180;30134;47.866;-4.222;2023-03-24T08:00:56;100213.00;;;22.90
44429;BMP180;30134;47.866;-4.222;2023-03-24T08:03:22;100230.00;;;22.90
44429;BMP180;30134;47.866;-4.222;2023-03-24T08:05:53;100226.00;;;22.90
44429;BMP180;30134;47.866;-4.222;2023-03-24T08:08:20;100225.00;;;22.90
44429;BMP180;30134;47.866;-4.222;2023-03-24T08:10:47;100230.00;;;22.90
44429;BMP180;30134;47.866;-4.222;2023-03-24T08:13:15;100240.00;;;22.90
44429;BMP180;30134;47.866;-4.222;2023-03-24T08:15:41;100243.00;;;22.90
44429;BMP180;30134;47.866;-4.222;2023-03-24T08:18:07;100239.00;;;22.90
44429;BMP180;30134;47.866;-4.222;2023-03-24T08:20:33;100251.00;;;22.90
44429;BMP180;30134;47.866;-4.222;2023-03-24T08:23:14;100255.00;;;22.90
44429;BMP180;30134;47.866;-4.222;2023-03-24T08:25:49;100263.00;;;22.90
44429;BMP180;30134;47.866;-4.222;2023-03-24T08:28:16;100257.00;;;22.90
44429;BMP180;30134;47.866;-4.222;2023-03-24T08:30:42;100252.00;;;22.90
44429;BMP180;30134;47.866;-4.222;2023-03-24T08:33:14;100256.00;;;22.90
44429;BMP180;30134;47.866;-4.222;2023-03-24T08:35:41;100261.00;;;22.90
44429;BMP180;30134;47.866;-4.222;2023-03-24T08:38:09;100263.00;;;22.90
44429;BMP180;30134;47.866;-4.222;2023-03-24T08:40:39;100271.00;;;22.90
44429;BMP180;30134;47.866;-4.222;2023-03-24T08:43:11;100276.00;;;22.90
44429;BMP180;30134;47.866;-4.222;2023-03-24T08:45:38;100271.00;;;22.90
44429;BMP180;30134;47.866;-4.222;2023-03-24T08:48:06;100270.00;;;22.90
44429;BMP180;30134;47.866;-4.222;2023-03-24T08:50:41;100277.00;;;23.00
44429;BMP180;30134;47.866;-4.222;2023-03-24T08:53:08;100270.00;;;22.90
44429;BMP180;30134;47.866;-4.222;2023-03-24T08:55:34;100275.00;;;22.90
44429;BMP180;30134;47.866;-4.222;2023-03-24T08:58:02;100281.00;;;22.90
44429;BMP180;30134;47.866;-4.222;2023-03-24T09:00:28;100287.00;;;22.90
44429;BMP180;30134;47.866;-4.222;2023-03-24T09:02:55;100283.00;;;22.90
44429;BMP180;30134;47.866;-4.222;2023-03-24T09:05:23;100288.00;;;22.90
44429;BMP180;30134;47.866;-4.222;2023-03-24T09:07:50;100296.00;;;22.90
44429;BMP180;30134;47.866;-4.222;2023-03-24T09:10:16;100296.00;;;22.90
44429;BMP180;30134;47.866;-4.222;2023-03-24T09:12:43;100305.00;;;22.90
44429;BMP180;30134;47.866;-4.222;2023-03-24T09:15:12;100300.00;;;22.90
44429;BMP180;30134;47.866;-4.222;2023-03-24T09:17:39;100296.00;;;22.90
44429;BMP180;30134;47.866;-4.222;2023-03-24T09:20:08;100302.00;;;22.90
44429;BMP180;30134;47.866;-4.222;2023-03-24T09:22:44;100313.00;;;22.90
44429;BMP180;30134;47.866;-4.222;2023-03-24T09:25:15;100319.00;;;22.90
44429;BMP180;30134;47.866;-4.222;2023-03-24T09:27:41;100298.00;;;22.90
44429;BMP180;30134;47.866;-4.222;2023-03-24T09:30:09;100305.00;;;22.90
44429;BMP180;30134;47.866;-4.222;2023-03-24T09:32:36;100305.00;;;22.90
44429;BMP180;30134;47.866;-4.222;2023-03-24T09:35:03;100313.00;;;22.90
44429;BMP180;30134;47.866;-4.222;2023-03-24T09:37:34;100320.00;;;22.90
44429;BMP180;30134;47.866;-4.222;2023-03-24T09:40:01;100324.00;;;22.90
44429;BMP180;30134;47.866;-4.222;2023-03-24T09:42:39;100316.00;;;22.90
44429;BMP180;30134;47.866;-4.222;2023-03-24T09:45:19;100312.00;;;22.90
44429;BMP180;30134;47.866;-4.222;2023-03-24T09:47:58;100321.00;;;22.90
44429;BMP180;30134;47.866;-4.222;2023-03-24T09:50:48;100316.00;;;23.00
44429;BMP180;30134;47.866;-4.222;2023-03-24T09:56:15;100340.00;;;22.90
44429;BMP180;30134;47.866;-4.222;2023-03-24T09:58:52;100338.00;;;22.90
44429;BMP180;30134;47.866;-4.222;2023-03-24T10:01:23;100341.00;;;22.90
44429;BMP180;30134;47.866;-4.222;2023-03-24T10:03:49;100336.00;;;22.90
44429;BMP180;30134;47.866;-4.222;2023-03-24T10:06:22;100349.00;;;22.90
44429;BMP180;30134;47.866;-4.222;2023-03-24T10:09:12;100347.00;;;22.90
44429;BMP180;30134;47.866;-4.222;2023-03-24T10:28:15;100360.00;;;22.90
44429;BMP180;30134;47.866;-4.222;2023-03-24T10:30:44;100369.00;;;22.90
44429;BMP180;30134;47.866;-4.222;2023-03-24T10:33:12;100370.00;;;22.90
44429;BMP180;30134;47.866;-4.222;2023-03-24T10:35:57;100376.00;;;22.90
44429;BMP180;30134;47.866;-4.222;2023-03-24T10:38:26;100371.00;;;22.90
44429;BMP180;30134;47.866;-4.222;2023-03-24T10:40:53;100379.00;;;22.90
44429;BMP180;30134;47.866;-4.222;2023-03-24T10:43:21;100389.00;;;22.90
44429;BMP180;30134;47.866;-4.222;2023-03-24T10:45:53;100376.00;;;23.00
44429;BMP180;30134;47.866;-4.222;2023-03-24T10:51:06;100383.00;;;22.90
44429;BMP180;30134;47.866;-4.222;2023-03-24T10:53:33;100390.00;;;23.20
44429;BMP180;30134;47.866;-4.222;2023-03-24T10:55:59;100386.00;;;23.10
44429;BMP180;30134;47.866;-4.222;2023-03-24T10:58:34;100385.00;;;23.10
44429;BMP180;30134;47.866;-4.222;2023-03-24T11:01:01;100389.00;;;23.10
44429;BMP180;30134;47.866;-4.222;2023-03-24T11:03:31;100395.00;;;23.10
44429;BMP180;30134;47.866;-4.222;2023-03-24T11:06:03;100393.00;;;23.10
44429;BMP180;30134;47.866;-4.222;2023-03-24T11:08:36;100398.00;;;23.10
44429;BMP180;30134;47.866;-4.222;2023-03-24T11:11:30;100401.00;;;23.10
44429;BMP180;30134;47.866;-4.222;2023-03-24T11:14:00;100404.00;;;23.10
44429;BMP180;30134;47.866;-4.222;2023-03-24T11:16:35;100392.00;;;23.10
44429;BMP180;30134;47.866;-4.222;2023-03-24T11:19:22;100400.00;;;23.10
44429;BMP180;30134;47.866;-4.222;2023-03-24T11:21:51;100397.00;;;23.00
44429;BMP180;30134;47.866;-4.222;2023-03-24T11:24:28;100402.00;;;23.00
44429;BMP180;30134;47.866;-4.222;2023-03-24T11:26:59;100427.00;;;23.00
44429;BMP180;30134;47.866;-4.222;2023-03-24T11:29:29;100403.00;;;22.80
44429;BMP180;30134;47.866;-4.222;2023-03-24T11:32:02;100412.00;;;22.90
44429;BMP180;30134;47.866;-4.222;2023-03-24T11:34:34;100406.00;;;22.80
44429;BMP180;30134;47.866;-4.222;2023-03-24T11:37:20;100403.00;;;22.90
44429;BMP180;30134;47.866;-4.222;2023-03-24T11:40:16;100406.00;;;22.80
44429;BMP180;30134;47.866;-4.222;2023-03-24T11:45:40;100409.00;;;22.90
44429;BMP180;30134;47.866;-4.222;2023-03-24T11:48:41;100402.00;;;22.90
44429;BMP180;30134;47.866;-4.222;2023-03-24T11:51:35;100387.00;;;22.80
44429;BMP180;30134;47.866;-4.222;2023-03-24T11:54:05;100405.00;;;22.90
44429;BMP180;30134;47.866;-4.222;2023-03-24T11:56:52;100407.00;;;22.80
44429;BMP180;30134;47.866;-4.222;2023-03-24T12:07:38;100402.00;;;22.80
44429;BMP180;30134;47.866;-4.222;2023-03-24T12:13:14;100469.00;;;22.70
44429;BMP180;30134;47.866;-4.222;2023-03-24T12:21:36;100428.00;;;22.80
44429;BMP180;30134;47.866;-4.222;2023-03-24T12:27:46;100435.00;;;22.90
44429;BMP180;30134;47.866;-4.222;2023-03-24T12:39:33;100429.00;;;22.90
44429;BMP180;30134;47.866;-4.222;2023-03-24T12:42:15;100431.00;;;22.90
44429;BMP180;30134;47.866;-4.222;2023-03-24T12:56:47;100447.00;;;23.00
44429;BMP180;30134;47.866;-4.222;2023-03-24T12:59:43;100455.00;;;23.00
44429;BMP180;30134;47.866;-4.222;2023-03-24T13:02:21;100453.00;;;23.00
44429;BMP180;30134;47.866;-4.222;2023-03-24T13:04:54;100436.00;;;23.00
44429;BMP180;30134;47.866;-4.222;2023-03-24T13:07:24;100444.00;;;23.00
44429;BMP180;30134;47.866;-4.222;2023-03-24T13:10:06;100442.00;;;23.00
44429;BMP180;30134;47.866;-4.222;2023-03-24T13:15:33;100447.00;;;22.90
44429;BMP180;30134;47.866;-4.222;2023-03-24T13:18:33;100442.00;;;23.00
44429;BMP180;30134;47.866;-4.222;2023-03-24T13:21:10;100452.00;;;23.00
44429;BMP180;30134;47.866;-4.222;2023-03-24T13:24:01;100445.00;;;23.00
44429;BMP180;30134;47.866;-4.222;2023-03-24T13:32:04;100457.00;;;23.00
44429;BMP180;30134;47.866;-4.222;2023-03-24T13:34:38;100450.00;;;23.00
44429;BMP180;30134;47.866;-4.222;2023-03-24T13:37:25;100445.00;;;23.00
44429;BMP180;30134;47.866;-4.222;2023-03-24T13:40:00;100448.00;;;23.00
44429;BMP180;30134;47.866;-4.222;2023-03-24T13:42:47;100449.00;;;23.00
44429;BMP180;30134;47.866;-4.222;2023-03-24T13:45:29;100438.00;;;23.00
44429;BMP180;30134;47.866;-4.222;2023-03-24T13:50:53;100431.00;;;23.00
44429;BMP180;30134;47.866;-4.222;2023-03-24T13:53:38;100452.00;;;23.00
44429;BMP180;30134;47.866;-4.222;2023-03-24T13:56:09;100469.00;;;23.00
44429;BMP180;30134;47.866;-4.222;2023-03-24T13:59:29;100436.00;;;23.00
44429;BMP180;30134;47.866;-4.222;2023-03-24T14:05:11;100426.00;;;23.00
44429;BMP180;30134;47.866;-4.222;2023-03-24T14:10:43;100429.00;;;23.00
44429;BMP180;30134;47.866;-4.222;2023-03-24T14:15:49;100492.00;;;23.00
44429;BMP180;30134;47.866;-4.222;2023-03-24T14:25:55;100469.00;;;23.00
44429;BMP180;30134;47.866;-4.222;2023-03-24T14:28:36;100474.00;;;23.00
44429;BMP180;30134;47.866;-4.222;2023-03-24T14:36:28;100552.00;;;22.90
44429;BMP180;30134;47.866;-4.222;2023-03-24T14:41:45;100527.00;;;22.90
44429;BMP180;30134;47.866;-4.222;2023-03-24T14:47:29;100513.00;;;23.00
44429;BMP180;30134;47.866;-4.222;2023-03-24T14:49:57;100534.00;;;23.00
44429;BMP180;30134;47.866;-4.222;2023-03-24T14:52:34;100543.00;;;23.00
44429;BMP180;30134;47.866;-4.222;2023-03-24T14:55:15;100559.00;;;23.00
44429;BMP180;30134;47.866;-4.222;2023-03-24T14:58:03;100564.00;;;23.00
44429;BMP180;30134;47.866;-4.222;2023-03-24T15:00:37;100554.00;;;23.00
44429;BMP180;30134;47.866;-4.222;2023-03-24T15:05:51;100542.00;;;23.00
44429;BMP180;30134;47.866;-4.222;2023-03-24T15:08:22;100523.00;;;23.00
44429;BMP180;30134;47.866;-4.222;2023-03-24T15:11:09;100527.00;;;23.00
44429;BMP180;30134;47.866;-4.222;2023-03-24T15:13:50;100502.00;;;23.00
44429;BMP180;30134;47.866;-4.222;2023-03-24T15:16:35;100495.00;;;23.00
44429;BMP180;30134;47.866;-4.222;2023-03-24T15:19:24;100515.00;;;23.00
44429;BMP180;30134;47.866;-4.222;2023-03-24T15:22:04;100495.00;;;23.00
44429;BMP180;30134;47.866;-4.222;2023-03-24T15:24:36;100512.00;;;23.00
44429;BMP180;30134;47.866;-4.222;2023-03-24T15:29:35;100511.00;;;23.00
44429;BMP180;30134;47.866;-4.222;2023-03-24T15:32:03;100491.00;;;23.00
44429;BMP180;30134;47.866;-4.222;2023-03-24T15:34:39;100512.00;;;23.00
44429;BMP180;30134;47.866;-4.222;2023-03-24T15:39:53;100479.00;;;22.90
44429;BMP180;30134;47.866;-4.222;2023-03-24T15:42:22;100471.00;;;23.00
44429;BMP180;30134;47.866;-4.222;2023-03-24T15:44:50;100476.00;;;23.00
44429;BMP180;30134;47.866;-4.222;2023-03-24T15:47:24;100462.00;;;23.00
44429;BMP180;30134;47.866;-4.222;2023-03-24T15:50:00;100465.00;;;23.00
44429;BMP180;30134;47.866;-4.222;2023-03-24T15:52:31;100478.00;;;23.00
44429;BMP180;30134;47.866;-4.222;2023-03-24T15:55:27;100470.00;;;23.00
44429;BMP180;30134;47.866;-4.222;2023-03-24T15:57:55;100481.00;;;23.00
44429;BMP180;30134;47.866;-4.222;2023-03-24T16:00:35;100481.00;;;23.00
44429;BMP180;30134;47.866;-4.222;2023-03-24T16:03:04;100491.00;;;22.90
44429;BMP180;30134;47.866;-4.222;2023-03-24T16:05:32;100492.00;;;22.90
44429;BMP180;30134;47.866;-4.222;2023-03-24T16:08:30;100496.00;;;22.90
44429;BMP180;30134;47.866;-4.222;2023-03-24T16:11:10;100496.00;;;23.00
44429;BMP180;30134;47.866;-4.222;2023-03-24T16:13:41;100500.00;;;23.00
44429;BMP180;30134;47.866;-4.222;2023-03-24T16:16:22;100504.00;;;23.00
44429;BMP180;30134;47.866;-4.222;2023-03-24T16:18:49;100506.00;;;23.00
44429;BMP180;30134;47.866;-4.222;2023-03-24T16:21:25;100510.00;;;23.00
44429;BMP180;30134;47.866;-4.222;2023-03-24T16:23:54;100519.00;;;23.00
44429;BMP180;30134;47.866;-4.222;2023-03-24T16:26:30;100515.00;;;22.90
44429;BMP180;30134;47.866;-4.222;2023-03-24T16:29:18;100513.00;;;22.90
44429;BMP180;30134;47.866;-4.222;2023-03-24T16:31:47;100504.00;;;22.90
44429;BMP180;30134;47.866;-4.222;2023-03-24T16:34:18;100507.00;;;22.90
44429;BMP180;30134;47.866;-4.222;2023-03-24T16:36:51;100504.00;;;23.00
44429;BMP180;30134;47.866;-4.222;2023-03-24T16:39:21;100503.00;;;23.00
44429;BMP180;30134;47.866;-4.222;2023-03-24T16:41:48;100498.00;;;22.90
44429;BMP180;30134;47.866;-4.222;2023-03-24T16:44:14;100495.00;;;22.90
44429;BMP180;30134;47.866;-4.222;2023-03-24T16:46:44;100489.00;;;22.90
44429;BMP180;30134;47.866;-4.222;2023-03-24T16:49:14;100497.00;;;23.00
44429;BMP180;30134;47.866;-4.222;2023-03-24T16:51:41;100505.00;;;23.00
44429;BMP180;30134;47.866;-4.222;2023-03-24T16:54:07;100500.00;;;23.00
44429;BMP180;30134;47.866;-4.222;2023-03-24T16:56:34;100500.00;;;23.00
44429;BMP180;30134;47.866;-4.222;2023-03-24T16:59:01;100504.00;;;23.00
44429;BMP180;30134;47.866;-4.222;2023-03-24T17:01:31;100501.00;;;23.00
44429;BMP180;30134;47.866;-4.222;2023-03-24T17:04:03;100501.00;;;23.00
44429;BMP180;30134;47.866;-4.222;2023-03-24T17:06:31;100501.00;;;23.00